Time;durP1;ratioP1;P1;durP2;ratioP2;P2;SDS_P1;SDS_P2;PMS_P1;PMS_P2;Temp;Humidity;BMP_temperature;BMP_pressure;BME280_temperature;BME280_humidity;BME280_pressure;Samples;Min_cycle;Max_cycle;Signal;HPM_P1;HPM_P2
2022/02/12 00:01:04;;;;;;;3.15;0.90;;;;;;;6.68;46.21;101201.22;4376168;32;34124;-83
2022/02/12 00:03:33;;;;;;;2.10;0.65;;;;;;;6.66;46.34;101197.72;4375315;32;33289;-83
2022/02/12 00:06:01;;;;;;;3.65;1.20;;;;;;;6.75;46.04;101204.69;4375352;32;32965;-84
2022/02/12 00:08:30;;;;;;;1.55;0.85;;;;;;;6.90;45.65;101208.09;4375008;32;33791;-84
2022/02/12 00:10:58;;;;;;;2.22;0.90;;;;;;;6.24;47.25;101204.91;4388564;32;33675;-84
2022/02/12 00:13:26;;;;;;;1.45;0.60;;;;;;;6.56;46.59;101214.41;4376005;32;33007;-84
2022/02/12 00:15:54;;;;;;;0.93;0.82;;;;;;;6.79;45.78;101209.00;4388068;32;32509;-84
2022/02/12 00:18:21;;;;;;;2.47;0.73;;;;;;;6.65;46.13;101211.75;4377078;32;33504;-84
2022/02/12 00:20:49;;;;;;;2.58;1.17;;;;;;;6.67;46.08;101209.97;4375440;32;33720;-85
2022/02/12 00:23:17;;;;;;;1.65;0.82;;;;;;;6.89;46.03;101211.59;4375595;32;33691;-85
2022/02/12 00:25:45;;;;;;;1.95;0.75;;;;;;;7.15;45.17;101210.53;4375050;32;33785;-84
2022/02/12 00:28:12;;;;;;;3.25;0.98;;;;;;;7.15;45.16;101218.44;4374781;32;33865;-84
2022/02/12 00:30:40;;;;;;;2.00;0.95;;;;;;;6.98;45.04;101220.28;4363328;32;33727;-84
2022/02/12 00:33:08;;;;;;;1.33;0.82;;;;;;;6.74;46.32;101230.06;4388283;32;32679;-84
2022/02/12 00:35:36;;;;;;;5.40;1.15;;;;;;;6.81;45.92;101228.28;4374824;32;32736;-84
2022/02/12 00:38:03;;;;;;;1.48;0.60;;;;;;;6.68;46.17;101235.31;4364232;32;33263;-84
2022/02/12 00:40:31;;;;;;;3.03;0.85;;;;;;;6.72;46.00;101237.06;4375635;32;33530;-84
2022/02/12 00:42:59;;;;;;;1.50;0.57;;;;;;;6.76;45.81;101238.81;4388190;32;33865;-84
2022/02/12 00:45:26;;;;;;;1.12;0.73;;;;;;;6.64;46.07;101246.72;4375141;32;33294;-84
2022/02/12 00:47:54;;;;;;;2.67;0.93;;;;;;;6.33;47.02;101259.09;4387616;32;33789;-84
2022/02/12 00:50:22;;;;;;;2.12;0.93;;;;;;;5.99;48.20;101250.44;4375066;32;34008;-84
2022/02/12 00:52:50;;;;;;;2.55;0.70;;;;;;;5.83;48.71;101255.66;4361994;32;33098;-83
2022/02/12 00:55:18;;;;;;;1.45;0.75;;;;;;;6.08;48.44;101258.28;4362910;32;33650;-83
2022/02/12 00:57:45;;;;;;;3.03;0.90;;;;;;;6.25;47.91;101247.75;4388367;32;33730;-85
2022/02/12 01:00:16;;;;;;;1.85;0.70;;;;;;;6.35;47.63;101252.09;4363543;32;32868;-85
2022/02/12 01:02:43;;;;;;;1.62;0.93;;;;;;;5.85;48.75;101259.16;4373888;32;32998;-85
2022/02/12 01:05:13;;;;;;;1.90;0.95;;;;;;;6.20;48.04;101260.87;4363874;32;33015;-85
2022/02/12 01:07:40;;;;;;;4.25;0.75;;;;;;;5.98;48.84;101269.66;4376818;32;33057;-85
2022/02/12 01:10:09;;;;;;;4.00;1.05;;;;;;;6.09;48.48;101258.28;4375678;32;33536;-85
2022/02/12 01:12:36;;;;;;;2.55;0.80;;;;;;;6.07;48.36;101261.78;4374200;32;34605;-85
2022/02/12 01:15:05;;;;;;;1.35;0.80;;;;;;;5.88;48.85;101267.00;4375489;32;33862;-84
2022/02/12 01:17:34;;;;;;;1.15;0.85;;;;;;;6.29;48.09;101275.72;4364500;32;32762;-84
2022/02/12 01:20:04;;;;;;;2.58;0.90;;;;;;;6.36;47.92;101265.22;4376984;32;33702;-83
2022/02/12 01:22:31;;;;;;;3.33;1.15;;;;;;;6.21;48.10;101267.00;4375947;32;34125;-83
2022/02/12 01:24:59;;;;;;;1.00;0.65;;;;;;;6.00;48.27;101260.91;4363285;32;32394;-83
2022/02/12 01:27:26;;;;;;;2.05;0.68;;;;;;;5.48;50.08;101265.28;4362337;32;33099;-83
2022/02/12 01:29:57;;;;;;;3.12;1.08;;;;;;;5.44;50.38;101267.03;4374725;32;32496;-83
2022/02/12 01:32:28;;;;;;;1.40;0.85;;;;;;;5.82;49.52;101267.00;4366094;32;36713;-83
2022/02/12 01:34:56;;;;;;;3.05;1.00;;;;;;;5.94;49.20;101266.19;4362870;32;32773;-84
2022/02/12 01:37:24;;;;;;;1.58;0.80;;;;;;;6.25;48.20;101269.59;4363064;32;32949;-83
2022/02/12 01:39:53;;;;;;;1.45;0.70;;;;;;;6.25;48.16;101277.47;4363960;32;34095;-83
2022/02/12 01:42:22;;;;;;;2.65;0.82;;;;;;;6.45;47.72;101279.16;4386114;32;33663;-83
2022/02/12 01:44:49;;;;;;;2.42;0.70;;;;;;;6.03;49.01;101278.38;4388052;32;34138;-83
2022/02/12 01:47:17;;;;;;;1.10;0.90;;;;;;;5.78;49.67;101275.75;4375168;32;33110;-83
2022/02/12 01:49:46;;;;;;;2.15;1.02;;;;;;;5.90;49.43;101283.63;4374356;32;34438;-83
2022/02/12 01:52:16;;;;;;;4.22;0.93;;;;;;;6.18;48.80;101290.63;4375386;32;32509;-83
2022/02/12 01:54:45;;;;;;;2.05;1.10;;;;;;;6.10;48.99;101301.13;4362575;32;34157;-83
2022/02/12 01:57:13;;;;;;;1.98;0.57;;;;;;;6.33;48.47;101304.56;4375314;32;32862;-83
2022/02/12 01:59:43;;;;;;;2.75;1.10;;;;;;;5.78;50.03;101304.59;4362528;32;33218;-83
2022/02/12 02:02:11;;;;;;;4.60;1.02;;;;;;;5.80;50.03;101294.13;4372836;32;32731;-84
2022/02/12 02:04:40;;;;;;;1.83;0.95;;;;;;;5.56;50.64;101284.50;4374982;32;33403;-84
2022/02/12 02:07:12;;;;;;;2.67;1.17;;;;;;;5.77;50.30;101292.34;4367167;32;34143;-85
2022/02/12 02:09:44;;;;;;;3.03;1.00;;;;;;;6.21;49.21;101298.47;4362528;32;33529;-85
2022/02/12 02:12:44;;;;;;;2.55;0.85;;;;;;;5.66;50.76;101296.75;4370599;32;34282;-85
2022/02/12 02:15:50;;;;;;;3.05;1.02;;;;;;;5.42;51.43;101301.97;4374503;32;31687;-85
2022/02/12 02:18:22;;;;;;;1.65;1.08;;;;;;;5.28;51.79;101300.19;4387298;32;32936;-85
2022/02/12 02:20:57;;;;;;;3.33;1.30;;;;;;;5.37;51.34;101302.81;4386318;32;32882;-84
2022/02/12 02:23:31;;;;;;;2.03;1.23;;;;;;;5.55;51.09;101311.56;4373516;32;34595;-84
2022/02/12 02:26:09;;;;;;;5.05;1.25;;;;;;;5.57;50.90;101317.69;4365726;32;33736;-84
2022/02/12 02:28:52;;;;;;;2.10;1.30;;;;;;;5.45;51.31;101321.16;4349764;32;34648;-83
2022/02/12 02:31:30;;;;;;;2.55;1.50;;;;;;;5.60;50.95;101320.28;4385648;32;32932;-84
2022/02/12 02:34:18;;;;;;;3.40;1.55;;;;;;;5.87;50.38;101325.56;4374339;32;32415;-84
2022/02/12 02:37:18;;;;;;;5.00;1.62;;;;;;;6.19;49.37;101342.19;4374549;32;34160;-84
2022/02/12 02:40:09;;;;;;;4.72;1.62;;;;;;;5.57;50.80;101357.00;4373216;32;34291;-84
2022/02/12 02:42:48;;;;;;;4.40;1.77;;;;;;;5.28;51.86;101349.06;4384577;32;33703;-83
2022/02/12 02:45:17;;;;;;;4.60;1.42;;;;;;;5.41;51.39;101361.31;4363294;32;33441;-84
2022/02/12 02:47:50;;;;;;;2.90;1.10;;;;;;;5.42;51.36;101362.22;4374542;32;34029;-84
2022/02/12 02:56:18;;;;;;;3.35;1.42;;;;;;;5.37;51.88;101352.59;4379466;32;33134;-84
2022/02/12 02:58:59;;;;;;;2.60;1.30;;;;;;;5.55;51.39;101362.22;4388101;32;33366;-84
2022/02/12 03:01:30;;;;;;;5.25;1.75;;;;;;;5.30;51.85;101363.91;4387989;32;33495;-84
2022/02/12 03:04:09;;;;;;;5.07;1.77;;;;;;;5.23;52.08;101377.88;4387511;32;33718;-85
2022/02/12 03:06:37;;;;;;;3.33;1.87;;;;;;;4.99;52.54;101372.53;4351363;32;32519;-84
2022/02/12 03:09:10;;;;;;;;;;;;;;;4.83;52.95;101388.16;4376654;32;32915;-85
2022/02/12 03:11:41;;;;;;;2.65;1.52;;;;;;;4.76;53.37;101394.25;4376043;32;32987;-85
2022/02/12 03:14:25;;;;;;;4.20;1.37;;;;;;;4.49;54.27;101394.06;4387758;32;33886;-85
2022/02/12 03:16:55;;;;;;;4.47;1.77;;;;;;;4.38;54.74;101394.00;4372035;32;33729;-84
2022/02/12 03:19:35;;;;;;;3.55;1.12;;;;;;;4.44;54.46;101403.63;4386747;32;34159;-84
2022/02/12 03:22:12;;;;;;;2.12;1.08;;;;;;;4.34;54.84;101403.56;4375276;32;33511;-84
2022/02/12 03:24:58;;;;;;;3.58;1.20;;;;;;;4.81;53.38;101413.47;4365811;32;32866;-84
2022/02/12 03:27:31;;;;;;;1.10;0.98;;;;;;;4.92;53.04;101410.88;4371673;32;34081;-85
2022/02/12 03:30:07;;;;;;;1.27;1.02;;;;;;;4.69;53.72;101418.59;4373458;32;33457;-84
2022/02/12 03:32:34;;;;;;;2.97;1.08;;;;;;;4.47;54.50;101414.13;4362990;32;36307;-84
2022/02/12 03:35:02;;;;;;;2.97;1.50;;;;;;;4.40;54.60;101409.69;4361874;32;34176;-84
2022/02/12 03:37:30;;;;;;;4.43;1.45;;;;;;;4.65;53.90;101416.81;4362970;32;33177;-83
2022/02/12 03:40:01;;;;;;;2.40;1.12;;;;;;;4.66;53.65;101421.22;4364698;32;33435;-83
2022/02/12 03:42:36;;;;;;;4.37;1.35;;;;;;;4.65;53.53;101429.91;4376282;32;32573;-84
2022/02/12 03:45:12;;;;;;;4.53;1.65;;;;;;;4.63;53.50;101429.03;4375836;32;32344;-84
2022/02/12 03:47:45;;;;;;;4.10;1.60;;;;;;;4.48;54.08;101432.44;4376185;32;32671;-84
2022/02/12 03:50:12;;;;;;;1.98;1.33;;;;;;;4.60;54.04;101431.62;4363419;32;32084;-84
2022/02/12 03:52:43;;;;;;;2.12;1.02;;;;;;;4.28;54.93;101440.13;4363343;32;34850;-84
2022/02/12 03:55:11;;;;;;;3.03;1.50;;;;;;;4.29;54.92;101436.66;4363903;32;33204;-84
2022/02/12 03:57:41;;;;;;;3.92;1.23;;;;;;;4.14;55.51;101440.87;4351805;32;33828;-84
2022/02/12 04:00:11;;;;;;;1.65;1.20;;;;;;;4.26;55.16;101443.56;4362632;32;33138;-84
2022/02/12 04:02:48;;;;;;;6.68;1.30;;;;;;;4.22;55.30;101450.50;4364265;32;33937;-83
2022/02/12 04:05:17;;;;;;;1.67;1.35;;;;;;;4.12;55.76;101454.78;4351725;32;32618;-84
2022/02/12 04:07:46;;;;;;;3.00;1.48;;;;;;;4.11;56.31;101453.03;4351069;32;33128;-84
2022/02/12 04:10:19;;;;;;;4.07;1.58;;;;;;;4.09;56.64;101448.69;4375628;32;33155;-84
2022/02/12 04:12:53;;;;;;;2.78;1.73;;;;;;;4.02;57.44;101450.34;4362753;32;33793;-84
2022/02/12 04:15:25;;;;;;;4.00;1.58;;;;;;;4.22;56.87;101447.91;4351141;32;32874;-83
2022/02/12 04:17:53;;;;;;;6.87;1.73;;;;;;;4.18;56.75;101448.75;4363852;32;33990;-83
2022/02/12 04:20:26;;;;;;;3.62;1.58;;;;;;;4.40;56.08;101454.16;4363769;32;33087;-83
2022/02/12 04:22:57;;;;;;;2.17;1.45;;;;;;;4.10;56.90;101447.81;4351531;32;33796;-83
2022/02/12 04:25:27;;;;;;;4.57;1.67;;;;;;;4.07;57.11;101450.37;4374896;32;32963;-83
2022/02/12 04:27:56;;;;;;;3.22;1.50;;;;;;;4.06;56.98;101446.91;4375579;32;34317;-83
2022/02/12 04:30:26;;;;;;;3.87;1.42;;;;;;;4.20;56.49;101454.88;4363729;32;32976;-83
2022/02/12 04:32:54;;;;;;;3.28;1.40;;;;;;;4.24;56.32;101455.78;4362135;32;35070;-83
2022/02/12 04:35:21;;;;;;;3.65;1.80;;;;;;;4.33;56.04;101459.34;4375096;32;32882;-83
2022/02/12 04:37:49;;;;;;;3.90;1.83;;;;;;;4.14;56.79;101461.78;4362609;32;34135;-83
2022/02/12 04:40:17;;;;;;;2.40;1.58;;;;;;;4.16;56.49;101446.97;4388227;32;32714;-84
2022/02/12 04:42:44;;;;;;;4.00;1.55;;;;;;;3.84;57.57;101451.03;4374607;32;32353;-83
2022/02/12 04:45:12;;;;;;;4.28;1.80;;;;;;;3.74;57.91;101450.91;4375434;32;34785;-84
2022/02/12 04:47:40;;;;;;;3.22;1.95;;;;;;;3.82;58.08;101450.16;4375764;32;33052;-84
2022/02/12 04:50:09;;;;;;;3.35;1.77;;;;;;;3.93;57.54;101454.59;4374566;32;33685;-83
2022/02/12 04:52:38;;;;;;;5.50;1.80;;;;;;;4.05;57.11;101458.22;4374808;32;34317;-84
2022/02/12 04:55:06;;;;;;;3.87;2.05;;;;;;;3.89;57.14;101463.25;4364739;32;33015;-83
2022/02/12 04:57:35;;;;;;;4.22;1.85;;;;;;;4.02;57.06;101468.63;4362655;32;32819;-84
2022/02/12 05:00:04;;;;;;;2.97;1.90;;;;;;;3.96;57.02;101467.72;4374760;32;33986;-84
2022/02/12 05:02:34;;;;;;;5.03;2.25;;;;;;;4.08;56.50;101473.94;4362782;32;32089;-84
2022/02/12 05:05:03;;;;;;;3.37;1.85;;;;;;;3.53;58.61;101480.31;4376546;32;32699;-84
2022/02/12 05:07:30;;;;;;;5.22;2.28;;;;;;;3.68;58.50;101474.37;4375703;32;33908;-84
2022/02/12 05:09:59;;;;;;;3.15;1.67;;;;;;;3.56;59.19;101470.78;4374442;32;33451;-83
2022/02/12 05:12:27;;;;;;;2.97;2.28;;;;;;;3.59;59.32;101469.91;4372264;32;34049;-83
2022/02/12 05:14:55;;;;;;;5.25;1.90;;;;;;;3.84;58.56;101464.09;4382999;32;33884;-83
2022/02/12 05:17:23;;;;;;;6.53;2.20;;;;;;;3.52;59.92;101483.78;4371249;32;33578;-83
2022/02/12 05:19:51;;;;;;;4.00;2.10;;;;;;;3.79;59.36;101484.06;4384626;32;32992;-83
2022/02/12 05:22:20;;;;;;;3.72;2.17;;;;;;;3.83;59.93;101483.25;4371520;32;33115;-83
2022/02/12 05:24:48;;;;;;;2.47;1.70;;;;;;;3.62;60.92;101480.41;4372358;32;33265;-84
2022/02/12 05:27:16;;;;;;;3.72;2.12;;;;;;;4.00;60.08;101469.50;4369950;32;34229;-84
2022/02/12 05:29:45;;;;;;;3.87;1.65;;;;;;;4.09;59.45;101477.44;4371679;32;33287;-83
2022/02/12 05:32:12;;;;;;;3.30;1.75;;;;;;;4.18;59.44;101485.38;4371162;32;33015;-82
2022/02/12 05:34:42;;;;;;;3.67;1.90;;;;;;;4.60;57.96;101489.19;4366376;32;34375;-83
2022/02/12 05:37:10;;;;;;;3.70;2.28;;;;;;;4.34;58.12;101495.09;4384859;32;35100;-83
2022/02/12 05:39:38;;;;;;;3.72;2.40;;;;;;;4.10;58.53;101498.34;4359209;32;33645;-82
2022/02/12 05:42:06;;;;;;;3.30;2.00;;;;;;;4.11;58.56;101499.22;4372179;32;34507;-83
2022/02/12 05:44:34;;;;;;;3.75;2.17;;;;;;;4.32;57.80;101499.44;4376843;32;33448;-83
2022/02/12 05:47:02;;;;;;;4.00;2.42;;;;;;;4.05;58.94;101502.66;4347986;32;32665;-84
2022/02/12 05:49:30;;;;;;;6.57;3.28;;;;;;;4.01;59.08;101502.59;4359729;32;33455;-84
2022/02/12 05:52:02;;;;;;;3.50;1.90;;;;;;;3.68;60.54;101498.75;4371285;32;33078;-83
2022/02/12 05:54:30;;;;;;;4.57;2.75;;;;;;;3.85;59.71;101497.22;4348273;32;32753;-84
2022/02/12 05:56:57;;;;;;;4.12;2.62;;;;;;;3.87;59.92;101501.59;4376637;32;34195;-84
2022/02/12 05:59:25;;;;;;;4.78;2.30;;;;;;;4.18;58.86;101508.91;4371767;32;32706;-84
2022/02/12 06:01:52;;;;;;;5.35;3.25;;;;;;;3.89;59.52;101515.53;4362270;32;33761;-84
2022/02/12 06:04:21;;;;;;;6.12;2.22;;;;;;;4.29;58.62;101522.06;4359635;32;31811;-83
2022/02/12 06:06:50;;;;;;;5.15;1.90;;;;;;;4.26;58.27;101524.63;4358794;32;32873;-83
2022/02/12 06:09:18;;;;;;;5.57;2.42;;;;;;;4.23;58.15;101528.13;4371654;32;33329;-83
2022/02/12 06:11:45;;;;;;;3.95;2.33;;;;;;;3.91;59.41;101534.75;4361229;32;34601;-84
2022/02/12 06:14:13;;;;;;;7.90;2.58;;;;;;;4.16;58.41;101528.91;4359658;32;33418;-83
2022/02/12 06:16:41;;;;;;;7.28;3.10;;;;;;;4.24;58.22;101532.47;4370148;32;34031;-84
2022/02/12 06:19:09;;;;;;;5.85;2.87;;;;;;;4.22;58.56;101534.19;4372977;32;32286;-84
2022/02/12 06:21:36;;;;;;;5.50;2.97;;;;;;;4.36;58.19;101543.03;4371154;32;33479;-84
2022/02/12 06:24:04;;;;;;;3.35;2.33;;;;;;;4.10;58.39;101540.19;4369801;32;33212;-83
2022/02/12 06:26:32;;;;;;;2.62;2.25;;;;;;;4.46;57.94;101537.88;4386291;32;34004;-83
2022/02/12 06:28:59;;;;;;;3.35;2.40;;;;;;;4.26;58.48;101541.19;4375618;32;33684;-84
2022/02/12 06:31:27;;;;;;;3.87;2.42;;;;;;;4.13;58.81;101549.81;4373754;32;33697;-83
2022/02/12 06:33:55;;;;;;;6.40;3.22;;;;;;;4.13;59.06;101544.56;4358376;32;34731;-83
2022/02/12 06:36:23;;;;;;;4.97;2.78;;;;;;;4.26;59.04;101556.00;4364210;32;33176;-84
2022/02/12 06:38:52;;;;;;;5.43;3.35;;;;;;;4.28;58.77;101549.06;4365767;32;32522;-84
2022/02/12 06:41:20;;;;;;;7.97;3.62;;;;;;;4.42;58.72;101554.44;4371167;32;33545;-84
2022/02/12 06:43:50;;;;;;;11.60;3.90;;;;;;;4.26;59.46;101551.66;4362261;32;33216;-83
2022/02/12 06:46:17;;;;;;;7.37;3.15;;;;;;;3.91;60.32;101558.25;4348955;32;34014;-84
2022/02/12 06:48:45;;;;;;;4.55;3.03;;;;;;;4.06;60.42;101563.66;4371965;32;32898;-84
2022/02/12 06:51:15;;;;;;;8.18;4.10;;;;;;;4.15;59.79;101568.97;4361737;32;34126;-83
2022/02/12 06:53:44;;;;;;;6.07;2.83;;;;;;;4.42;59.58;101572.75;4363139;32;34250;-85
2022/02/12 06:56:12;;;;;;;8.85;3.08;;;;;;;4.34;59.59;101570.94;4376302;32;34018;-84
2022/02/12 06:58:40;;;;;;;7.87;4.05;;;;;;;4.34;59.77;101576.16;4376209;32;33615;-84
2022/02/12 07:01:11;;;;;;;7.10;3.60;;;;;;;4.72;58.69;101578.25;4351367;32;34638;-83
2022/02/12 07:03:42;;;;;;;7.40;3.12;;;;;;;4.72;58.70;101588.72;4373292;32;32588;-84
2022/02/12 07:06:09;;;;;;;5.60;3.30;;;;;;;4.69;58.83;101587.81;4366672;32;34140;-83
2022/02/12 07:08:37;;;;;;;5.43;3.03;;;;;;;5.04;58.06;101580.25;4362218;32;33044;-85
2022/02/12 07:11:05;;;;;;;6.18;3.33;;;;;;;4.98;58.28;101577.56;4373270;32;33375;-84
2022/02/12 07:13:32;;;;;;;5.57;3.10;;;;;;;5.09;58.15;101583.78;4372252;32;34254;-84
2022/02/12 07:16:01;;;;;;;4.40;2.72;;;;;;;5.35;57.52;101582.19;4360671;32;32950;-86
2022/02/12 07:18:30;;;;;;;5.75;3.15;;;;;;;5.03;57.95;101578.50;4362935;32;32277;-84
2022/02/12 07:20:58;;;;;;;6.05;3.25;;;;;;;5.42;57.26;101588.38;4360332;32;32758;-85
2022/02/12 07:23:26;;;;;;;5.80;2.97;;;;;;;5.48;57.46;101592.78;4363556;32;33803;-84
2022/02/12 07:25:54;;;;;;;3.20;2.70;;;;;;;5.82;56.25;101594.69;4382924;32;33964;-85
2022/02/12 07:28:22;;;;;;;5.35;2.95;;;;;;;5.88;55.94;101592.06;4372878;32;33668;-84
2022/02/12 07:30:50;;;;;;;6.72;3.83;;;;;;;5.49;57.00;101600.63;4383524;32;33267;-85
2022/02/12 07:33:18;;;;;;;5.50;3.28;;;;;;;5.96;56.05;101581.66;4378536;32;33283;-88
2022/02/12 07:35:45;;;;;;;5.43;3.42;;;;;;;6.17;55.77;101596.59;4365212;32;32757;-89
2022/02/12 07:38:14;;;;;;;7.45;4.05;;;;;;;6.07;56.05;101606.16;4378407;32;32922;-86
2022/02/12 07:40:42;;;;;;;7.10;3.33;;;;;;;6.47;54.93;101610.69;4376497;32;32733;-87
2022/02/12 07:43:11;;;;;;;4.47;2.92;;;;;;;6.50;54.55;101610.66;4364025;32;33560;-85
2022/02/12 07:45:39;;;;;;;8.40;3.37;;;;;;;6.59;54.20;101608.06;4365153;32;34023;-86
2022/02/12 07:48:07;;;;;;;7.18;3.58;;;;;;;6.69;54.47;101604.56;4375873;32;33629;-85
2022/02/12 07:50:35;;;;;;;4.57;2.92;;;;;;;6.77;54.23;101609.84;4387705;32;30430;-84
2022/02/12 07:53:03;;;;;;;7.37;3.17;;;;;;;6.95;53.39;101609.84;4375875;32;33546;-83
2022/02/12 07:55:31;;;;;;;5.70;2.95;;;;;;;6.53;54.19;101613.31;4374146;32;33516;-83
2022/02/12 07:57:59;;;;;;;4.78;2.97;;;;;;;6.32;55.00;101622.00;4387693;32;32931;-83
2022/02/12 08:00:26;;;;;;;4.50;2.80;;;;;;;6.88;53.81;101623.84;4388937;32;33209;-82
2022/02/12 08:02:56;;;;;;;5.57;3.90;;;;;;;7.20;53.18;101621.22;4375406;32;33063;-82
2022/02/12 08:05:24;;;;;;;7.95;3.42;;;;;;;7.48;52.21;101619.44;4362359;32;33565;-82
2022/02/12 08:07:51;;;;;;;7.53;3.05;;;;;;;7.19;52.87;101619.47;4387028;32;32968;-83
2022/02/12 08:13:26;;;;;;;5.72;3.37;;;;;;;7.34;52.35;101616.81;4346877;32;32954;-82
2022/02/12 08:15:54;;;;;;;5.53;3.35;;;;;;;7.46;51.69;101612.44;4331860;32;33089;-82
2022/02/12 08:18:21;;;;;;;5.05;3.87;;;;;;;7.26;52.46;101631.72;4366521;32;32586;-82
2022/02/12 08:20:49;;;;;;;6.22;3.75;;;;;;;7.54;51.64;101615.91;4379472;32;33909;-83
2022/02/12 08:23:17;;;;;;;4.22;2.67;;;;;;;7.58;51.57;101621.16;4384415;32;34026;-82
2022/02/12 08:25:45;;;;;;;6.90;3.05;;;;;;;7.64;51.46;101623.78;4374525;32;32756;-83
2022/02/12 08:28:13;;;;;;;4.37;3.00;;;;;;;7.50;52.10;101620.31;4372987;32;32445;-82
2022/02/12 08:30:41;;;;;;;5.87;3.60;;;;;;;7.76;51.40;101625.50;4361374;32;33623;-82
2022/02/12 08:33:09;;;;;;;3.65;2.60;;;;;;;8.01;50.68;101628.03;4385571;32;33555;-82
2022/02/12 08:35:53;;;;;;;6.95;3.35;;;;;;;8.03;50.33;101636.81;4362264;32;33591;-82
2022/02/12 08:38:22;;;;;;;5.15;3.47;;;;;;;8.06;50.59;101634.16;4372986;32;34220;-82
2022/02/12 08:40:51;;;;;;;4.28;2.97;;;;;;;8.14;49.83;101637.63;4359554;32;33898;-82
2022/02/12 08:43:19;;;;;;;5.22;3.22;;;;;;;8.37;49.13;101629.66;4348902;32;33647;-83
2022/02/12 08:45:47;;;;;;;3.85;3.12;;;;;;;8.57;48.85;101634.81;4359285;32;33926;-83
2022/02/12 08:48:14;;;;;;;3.92;2.80;;;;;;;8.50;48.92;101638.34;4359785;32;32663;-83
2022/02/12 08:50:42;;;;;;;4.28;2.80;;;;;;;8.58;48.29;101641.81;4361224;32;33369;-83
2022/02/12 08:53:10;;;;;;;6.55;2.95;;;;;;;8.74;47.65;101647.88;4372675;32;33913;-82
2022/02/12 08:55:38;;;;;;;5.60;2.87;;;;;;;8.71;46.99;101639.09;4358385;32;32874;-85
2022/02/12 08:58:11;;;;;;;5.18;3.03;;;;;;;8.74;47.31;101634.72;4357504;32;33136;-84
2022/02/12 09:00:39;;;;;;;6.22;2.35;;;;;;;8.84;46.94;101637.25;4374803;32;32550;-83
2022/02/12 09:03:12;;;;;;;;;;;;;;;9.12;45.94;101637.94;4374138;32;33565;-82
2022/02/12 09:05:39;;;;;;;4.68;2.78;;;;;;;8.81;46.28;101639.91;4361452;32;33869;-82
2022/02/12 09:08:07;;;;;;;3.85;2.75;;;;;;;8.95;47.13;101648.59;4375098;32;31534;-82
2022/02/12 09:10:34;;;;;;;4.40;2.72;;;;;;;9.44;45.70;101648.16;4361709;32;33725;-82
2022/02/12 09:13:02;;;;;;;4.82;3.08;;;;;;;9.70;45.91;101634.72;4358496;32;32807;-83
2022/02/12 09:15:29;;;;;;;2.40;2.15;;;;;;;9.82;44.61;101636.34;4374779;32;33768;-83
2022/02/12 09:17:57;;;;;;;2.80;2.15;;;;;;;9.92;43.34;101645.00;4371872;32;32188;-83
2022/02/12 09:20:25;;;;;;;3.97;3.00;;;;;;;9.94;42.91;101643.25;4374281;32;33740;-83
2022/02/12 09:22:53;;;;;;;3.30;2.00;;;;;;;9.96;44.02;101644.09;4349255;32;33231;-83
2022/02/12 09:25:21;;;;;;;6.93;3.15;;;;;;;10.06;43.25;101644.84;4374618;32;32537;-82
2022/02/12 09:27:48;;;;;;;4.18;2.60;;;;;;;10.04;43.20;101654.56;4353845;32;33431;-83
2022/02/12 09:30:16;;;;;;;4.32;2.53;;;;;;;9.87;42.98;101650.34;4374557;32;34107;-83
2022/02/12 09:32:44;;;;;;;6.65;2.45;;;;;;;10.41;41.81;101655.88;4374902;32;32864;-83
2022/02/12 09:35:11;;;;;;;6.03;2.47;;;;;;;10.55;41.75;101641.62;4386035;32;33223;-83
2022/02/12 09:37:39;;;;;;;5.75;2.80;;;;;;;10.22;42.50;101643.78;4373853;32;32671;-83
2022/02/12 09:40:09;;;;;;;7.18;2.12;;;;;;;10.30;42.09;101641.06;4377476;32;33573;-83
2022/02/12 09:42:37;;;;;;;2.50;1.87;;;;;;;9.94;42.36;101654.69;4377778;32;34009;-84
2022/02/12 09:45:07;;;;;;;2.28;1.80;;;;;;;10.73;39.27;101652.81;4362777;32;32825;-83
2022/02/12 09:47:38;;;;;;;3.92;1.87;;;;;;;10.84;39.22;101655.28;4365100;32;32327;-83
2022/02/12 09:50:06;;;;;;;3.53;1.95;;;;;;;10.87;38.77;101655.25;4377464;32;33936;-85
2022/02/12 09:52:34;;;;;;;1.98;1.60;;;;;;;11.05;39.13;101647.91;4375780;32;33218;-85
2022/02/12 09:55:03;;;;;;;5.62;2.12;;;;;;;10.80;40.15;101643.00;4362040;32;33746;-84
2022/02/12 09:57:31;;;;;;;3.45;2.12;;;;;;;11.08;38.30;101647.84;4375404;32;33454;-84
2022/02/12 10:00:01;;;;;;;7.57;2.28;;;;;;;11.00;38.33;101645.31;4364518;32;32910;-86
2022/02/12 10:02:32;;;;;;;8.10;2.12;;;;;;;11.01;38.33;101645.31;4367433;32;33217;-85
2022/02/12 10:05:29;;;;;;;5.97;2.20;;;;;;;11.02;38.39;101649.69;4379759;32;34960;-84
2022/02/12 10:08:00;;;;;;;6.30;2.00;;;;;;;10.87;38.64;101652.59;4378826;32;34041;-84
2022/02/12 10:10:29;;;;;;;6.50;1.83;;;;;;;11.01;38.72;101632.09;4403376;32;34401;-84
2022/02/12 10:13:20;;;;;;;6.40;2.97;;;;;;;11.07;38.46;101647.00;4377223;32;33692;-84
2022/02/12 10:15:57;;;;;;;4.00;1.80;;;;;;;11.44;36.71;101647.25;4375023;32;32577;-84
2022/02/12 10:18:27;;;;;;;4.10;1.92;;;;;;;11.27;37.83;101649.28;4379706;32;32832;-84
2022/02/12 10:21:01;;;;;;;4.72;2.00;;;;;;;11.65;36.90;101629.22;4391859;32;33519;-85
2022/02/12 10:23:30;;;;;;;2.87;1.60;;;;;;;11.38;36.78;101646.44;4379102;32;33014;-84
2022/02/12 10:26:04;;;;;;;4.80;1.77;;;;;;;11.09;37.42;101639.87;4379147;32;34563;-84
2022/02/12 10:28:34;;;;;;;4.57;2.10;;;;;;;11.14;37.54;101642.47;4378690;32;32470;-84
2022/02/12 10:31:03;;;;;;;4.97;2.12;;;;;;;11.56;36.69;101639.97;4377804;32;34314;-84
2022/02/12 10:33:38;;;;;;;3.17;1.77;;;;;;;11.58;35.72;101627.56;4376228;32;33925;-84
2022/02/12 10:36:06;;;;;;;4.55;1.80;;;;;;;11.51;35.65;101632.97;4377753;32;33388;-85
2022/02/12 10:38:33;;;;;;;3.97;1.45;;;;;;;11.40;36.51;101640.25;4378540;32;33245;-85
2022/02/12 10:41:05;;;;;;;5.75;2.12;;;;;;;11.35;34.66;101628.88;4379050;32;33614;-85
2022/02/12 10:43:34;;;;;;;3.20;1.50;;;;;;;11.52;35.74;101624.13;4378511;32;33935;-85
2022/02/12 10:46:02;;;;;;;1.92;1.30;;;;;;;11.06;36.25;101628.50;4378392;32;33863;-85
2022/02/12 10:48:38;;;;;;;4.25;2.42;;;;;;;11.32;33.12;101618.34;4379314;32;33441;-85
2022/02/12 10:51:14;;;;;;;8.88;2.20;;;;;;;11.79;34.83;101611.28;4379736;32;34292;-85
2022/02/12 10:53:54;;;;;;;7.18;2.15;;;;;;;11.80;34.94;101610.38;4391776;32;33247;-85
2022/02/12 10:56:22;;;;;;;3.25;1.60;;;;;;;12.37;33.64;101604.78;4392263;32;34478;-85
2022/02/12 10:58:49;;;;;;;3.62;1.58;;;;;;;12.22;34.66;101611.31;4371978;32;32277;-85
2022/02/12 11:01:17;;;;;;;5.47;2.30;;;;;;;12.31;33.79;101604.94;4392506;32;34077;-85
2022/02/12 11:03:45;;;;;;;4.95;2.30;;;;;;;11.94;35.18;101605.72;4390964;32;34450;-85
2022/02/12 11:06:17;;;;;;;;;;;;;;;12.15;34.74;101600.88;4379777;32;34158;-84
2022/02/12 11:08:46;;;;;;;2.58;1.52;;;;;;;11.84;35.49;101598.00;4379048;32;33769;-85
2022/02/12 11:11:14;;;;;;;4.82;2.10;;;;;;;12.34;33.97;101596.91;4377512;32;33884;-84
2022/02/12 11:13:43;;;;;;;2.90;1.70;;;;;;;11.66;36.34;101593.91;4390431;32;33678;-85
2022/02/12 11:16:11;;;;;;;5.07;2.00;;;;;;;12.14;35.22;101597.34;4379130;32;32552;-85
2022/02/12 11:18:40;;;;;;;5.15;2.05;;;;;;;11.91;34.94;101589.87;4390768;32;32979;-84
2022/02/12 11:21:07;;;;;;;5.45;1.75;;;;;;;11.73;34.88;101592.91;4378241;32;34451;-84
2022/02/12 11:23:35;;;;;;;3.97;1.77;;;;;;;11.49;35.22;101592.47;4378591;32;33615;-85
2022/02/12 11:26:03;;;;;;;3.58;2.10;;;;;;;11.53;35.48;101587.97;4378087;32;33466;-85
2022/02/12 11:28:32;;;;;;;7.32;1.83;;;;;;;11.89;34.28;101585.53;4378519;32;33192;-84
2022/02/12 11:31:16;;;;;;;3.42;1.70;;;;;;;11.94;35.29;101595.13;4365409;32;33173;-85
2022/02/12 11:34:09;;;;;;;4.45;2.37;;;;;;;12.22;36.72;101590.13;4376760;32;33440;-85
2022/02/12 11:36:40;;;;;;;5.78;2.05;;;;;;;12.69;34.51;101569.59;4387995;32;34311;-86
2022/02/12 11:39:13;;;;;;;6.93;1.95;;;;;;;13.31;32.87;101568.94;4388048;32;32790;-86
2022/02/12 11:41:50;;;;;;;4.53;2.53;;;;;;;13.21;33.49;101567.41;4388603;32;33884;-86
2022/02/12 11:44:40;;;;;;;5.47;1.77;;;;;;;13.04;31.54;101560.75;4375753;32;33912;-85
2022/02/12 11:47:10;;;;;;;2.62;1.62;;;;;;;12.66;32.02;101550.25;4377425;32;33182;-85
2022/02/12 11:49:42;;;;;;;3.20;0.77;;;;;;;12.75;29.25;101558.84;4375558;32;33730;-85
2022/02/12 11:52:30;;;;;;;;;;;;;;;11.33;30.40;101580.41;4362957;32;33939;-85
2022/02/12 11:54:59;;;;;;;3.85;1.00;;;;;;;11.06;30.78;101586.19;4381513;32;35972;-86